Terminal Aerodrome Forecast
Issued by NWS Tulsa, OK

Home | Current Version | Previous Version | Text Only | Print | Product List | Glossary On
Versions: 1 2 3 4 5 6 7 8 9 10 11 12 13 14 15
000
FTUS44 KTSA 202335
TAFFSM
TAF
KFSM 202335Z 2100/2124 28004KT P6SM OVC100
      TEMPO 2100/2103 P6SM -SHRA
     FM210600 26003KT 4SM BR OVC025
      TEMPO 2109/2113 2SM BR OVC010
     FM211600 28009KT P6SM SCT015
     FM212100 32012KT P6SM SKC=

USA.gov is the U.S. government's official web portal to all federal, state and local government web resources and services.